Time;durP1;ratioP1;P1;durP2;ratioP2;P2;SDS_P1;SDS_P2;PMS_P1;PMS_P2;Temp;Humidity;BMP_temperature;BMP_pressure;BME280_temperature;BME280_humidity;BME280_pressure;Samples;Min_cycle;Max_cycle;Signal;HPM_P1;HPM_P2
2022/09/24 00:01:40;;;;;;;;;10.00;10.00;;;;;;;;5075362;27;45825;-81
2022/09/24 00:04:06;;;;;;;;;14.33;11.00;;;;;;;;5099080;27;45515;-80
2022/09/24 00:06:36;;;;;;;;;14.33;11.00;;;;;;;;5099250;27;46046;-80
2022/09/24 00:09:02;;;;;;;;;9.67;5.33;;;;;;;;5084375;27;48806;-80
2022/09/24 00:11:28;;;;;;;;;9.33;8.67;;;;;;;;5094213;27;46266;-81
2022/09/24 00:13:54;;;;;;;;;9.67;9.67;;;;;;;;5095023;27;45428;-81
2022/09/24 00:16:20;;;;;;;;;11.00;9.00;;;;;;;;5094006;27;45537;-80
2022/09/24 00:18:46;;;;;;;;;13.33;10.00;;;;;;;;5094266;27;46361;-80
2022/09/24 00:21:11;;;;;;;;;13.33;10.33;;;;;;;;5093718;27;45931;-82
2022/09/24 00:23:36;;;;;;;;;11.00;9.67;;;;;;;;5081763;27;45548;-80
2022/09/24 00:28:48;;;;;;;;;10.33;8.67;;;;;;;;5081441;27;45789;-80
2022/09/24 00:31:13;;;;;;;;;11.67;9.33;;;;;;;;5093103;27;45441;-78
2022/09/24 00:33:38;;;;;;;;;10.67;10.67;;;;;;;;5080401;27;45351;-78
2022/09/24 00:36:04;;;;;;;;;13.00;8.67;;;;;;;;5101907;27;45466;-77
2022/09/24 00:38:30;;;;;;;;;11.33;11.33;;;;;;;;5077487;27;48367;-78
2022/09/24 00:40:56;;;;;;;;;11.00;7.67;;;;;;;;5074313;27;45426;-79
2022/09/24 00:43:23;;;;;;;;;12.67;9.33;;;;;;;;5073736;27;45948;-77
2022/09/24 00:45:49;;;;;;;;;10.33;10.33;;;;;;;;5057467;27;47362;-76
2022/09/24 00:48:14;;;;;;;;;12.33;10.33;;;;;;;;5092738;27;46048;-79
2022/09/24 00:50:40;;;;;;;;;11.33;11.00;;;;;;;;5110431;27;45539;-79
2022/09/24 00:53:11;;;;;;;;;11.00;11.00;;;;;;;;5077642;27;45567;-78
2022/09/24 00:55:38;;;;;;;;;16.00;10.67;;;;;;;;5092895;27;45773;-79
2022/09/24 00:58:06;;;;;;;;;12.33;9.33;;;;;;;;5074018;27;45434;-79
2022/09/24 01:00:31;;;;;;;;;14.67;10.67;;;;;;;;5063895;27;45708;-79
2022/09/24 01:03:04;;;;;;;;;15.00;10.00;;;;;;;;5090220;27;45412;-79
2022/09/24 01:05:29;;;;;;;;;10.33;7.67;;;;;;;;5092264;27;46283;-81
2022/09/24 01:07:55;;;;;;;;;11.33;9.00;;;;;;;;5092763;27;45470;-81
2022/09/24 01:10:47;;;;;;;;;7.67;5.00;;;;;;;;5093933;27;45802;-79
2022/09/24 01:13:27;;;;;;;;;14.00;10.00;;;;;;;;5079116;27;45569;-78
2022/09/24 01:15:57;;;;;;;;;11.33;9.00;;;;;;;;5086137;27;45511;-81
2022/09/24 01:18:33;;;;;;;;;13.00;11.33;;;;;;;;5091896;27;45338;-80
2022/09/24 01:21:09;;;;;;;;;10.33;10.33;;;;;;;;5092452;27;45774;-81
2022/09/24 01:23:51;;;;;;;;;8.00;7.67;;;;;;;;5093012;27;45469;-81
2022/09/24 01:26:18;;;;;;;;;9.33;8.33;;;;;;;;5063524;27;45770;-80
2022/09/24 01:29:08;;;;;;;;;11.67;9.33;;;;;;;;5092195;27;45756;-81
2022/09/24 01:31:48;;;;;;;;;10.33;8.00;;;;;;;;5058011;27;57609;-80
2022/09/24 01:34:18;;;;;;;;;11.33;10.33;;;;;;;;5061420;27;45954;-77
2022/09/24 01:36:44;;;;;;;;;11.67;9.33;;;;;;;;5082359;27;46232;-77
2022/09/24 01:39:13;;;;;;;;;11.00;9.67;;;;;;;;5091416;27;45523;-77
2022/09/24 01:41:41;;;;;;;;;11.33;9.67;;;;;;;;5072835;27;45573;-77
2022/09/24 01:44:07;;;;;;;;;11.00;10.00;;;;;;;;5091779;27;45529;-77
2022/09/24 01:46:33;;;;;;;;;11.67;9.67;;;;;;;;5091442;27;45479;-77
2022/09/24 01:48:58;;;;;;;;;14.00;12.33;;;;;;;;5090331;27;46384;-77
2022/09/24 01:51:44;;;;;;;;;12.33;12.00;;;;;;;;5101143;27;45747;-68
2022/09/24 01:54:09;;;;;;;;;16.33;11.00;;;;;;;;5095693;27;45426;-72
2022/09/24 01:56:41;;;;;;;;;12.00;8.67;;;;;;;;5103719;27;45457;-72
2022/09/24 01:59:15;;;;;;;;;9.67;9.33;;;;;;;;5096248;27;45643;-72
2022/09/24 02:01:44;;;;;;;;;10.33;8.33;;;;;;;;5085846;27;45816;-72
2022/09/24 02:04:15;;;;;;;;;15.00;10.67;;;;;;;;5083374;27;46147;-71
2022/09/24 02:06:43;;;;;;;;;10.67;10.67;;;;;;;;5084981;27;45731;-70
2022/09/24 02:09:27;;;;;;;;;11.00;9.00;;;;;;;;5088249;27;45422;-71
2022/09/24 02:11:53;;;;;;;;;16.33;10.67;;;;;;;;5076944;27;45543;-70
2022/09/24 02:14:19;;;;;;;;;9.67;8.67;;;;;;;;5078016;27;45627;-71
2022/09/24 02:16:47;;;;;;;;;9.33;9.33;;;;;;;;5081831;27;45328;-72
2022/09/24 02:19:16;;;;;;;;;13.00;11.33;;;;;;;;5099062;27;46186;-70
2022/09/24 02:21:43;;;;;;;;;13.00;11.33;;;;;;;;5090578;27;45772;-71
2022/09/24 02:24:19;;;;;;;;;11.67;8.00;;;;;;;;5098868;27;45884;-71
2022/09/24 02:26:45;;;;;;;;;11.67;10.67;;;;;;;;5108545;27;45666;-70
2022/09/24 02:29:11;;;;;;;;;15.33;10.33;;;;;;;;5108656;27;45696;-70
2022/09/24 02:31:38;;;;;;;;;10.00;9.33;;;;;;;;5084468;27;45463;-70
2022/09/24 02:34:20;;;;;;;;;11.00;10.67;;;;;;;;5069014;27;45430;-71
2022/09/24 02:37:06;;;;;;;;;9.67;8.33;;;;;;;;5070142;27;45544;-71
2022/09/24 02:39:31;;;;;;;;;8.67;8.33;;;;;;;;5098834;27;45913;-72
2022/09/24 02:41:57;;;;;;;;;11.33;10.33;;;;;;;;5107871;27;46313;-70
2022/09/24 02:44:23;;;;;;;;;10.67;9.67;;;;;;;;5108657;27;45472;-70
2022/09/24 02:46:49;;;;;;;;;11.33;11.33;;;;;;;;5108353;27;45518;-71
2022/09/24 02:49:15;;;;;;;;;18.00;13.00;;;;;;;;5108923;27;45745;-70
2022/09/24 02:51:41;;;;;;;;;16.00;13.67;;;;;;;;5101575;27;45517;-70
2022/09/24 02:54:07;;;;;;;;;13.00;11.00;;;;;;;;5074498;27;45698;-70
2022/09/24 02:56:32;;;;;;;;;14.00;12.00;;;;;;;;5085037;27;45362;-70
2022/09/24 02:58:58;;;;;;;;;20.00;15.67;;;;;;;;5074552;27;45332;-71
2022/09/24 03:01:23;;;;;;;;;17.33;12.67;;;;;;;;5069648;27;45305;-70
2022/09/24 03:03:49;;;;;;;;;15.67;14.33;;;;;;;;5058410;27;45555;-72
2022/09/24 03:06:14;;;;;;;;;15.33;15.00;;;;;;;;5072868;27;45522;-70
2022/09/24 03:08:41;;;;;;;;;17.00;15.33;;;;;;;;5054994;27;45382;-70
2022/09/24 03:11:06;;;;;;;;;11.67;8.67;;;;;;;;5070522;27;46887;-71
2022/09/24 03:13:32;;;;;;;;;13.00;13.00;;;;;;;;5084079;27;45691;-71
2022/09/24 03:15:57;;;;;;;;;13.00;11.33;;;;;;;;5062259;27;45645;-72
2022/09/24 03:18:22;;;;;;;;;16.67;12.67;;;;;;;;5062223;27;45711;-71
2022/09/24 03:20:57;;;;;;;;;14.33;14.33;;;;;;;;5060569;27;45625;-72
2022/09/24 03:23:23;;;;;;;;;14.33;14.33;;;;;;;;5074565;27;45514;-73
2022/09/24 03:25:48;;;;;;;;;10.00;10.00;;;;;;;;5065356;27;45364;-73
2022/09/24 03:28:13;;;;;;;;;17.00;11.33;;;;;;;;5077646;27;45566;-71
2022/09/24 03:33:22;;;;;;;;;14.67;12.33;;;;;;;;5066593;27;45796;-71
2022/09/24 03:35:47;;;;;;;;;15.33;15.33;;;;;;;;5069336;27;45860;-71
2022/09/24 03:38:13;;;;;;;;;18.33;14.33;;;;;;;;5063777;27;45682;-70
2022/09/24 03:40:38;;;;;;;;;15.67;14.67;;;;;;;;5081754;27;45968;-71
2022/09/24 03:43:03;;;;;;;;;14.67;14.00;;;;;;;;5063672;27;45626;-71
2022/09/24 03:45:28;;;;;;;;;14.67;11.33;;;;;;;;5083636;27;45526;-70
2022/09/24 03:47:54;;;;;;;;;11.33;10.00;;;;;;;;5065688;27;45628;-71
2022/09/24 03:50:19;;;;;;;;;18.67;13.00;;;;;;;;5073747;27;46209;-71
2022/09/24 03:52:45;;;;;;;;;14.67;10.33;;;;;;;;5069525;27;45571;-70
2022/09/24 03:55:10;;;;;;;;;12.33;9.67;;;;;;;;5085182;27;45431;-70
2022/09/24 03:57:35;;;;;;;;;20.33;14.33;;;;;;;;5083416;27;45425;-70
2022/09/24 04:00:00;;;;;;;;;14.00;13.67;;;;;;;;5083776;27;45617;-71
2022/09/24 04:02:25;;;;;;;;;10.00;10.00;;;;;;;;5085548;27;45604;-71
2022/09/24 04:04:51;;;;;;;;;11.67;10.67;;;;;;;;5081545;27;45294;-70
2022/09/24 04:07:16;;;;;;;;;10.33;9.33;;;;;;;;5084004;27;45459;-70
2022/09/24 04:09:41;;;;;;;;;13.67;12.33;;;;;;;;5066308;27;45427;-71
2022/09/24 04:12:07;;;;;;;;;13.33;11.00;;;;;;;;5059064;27;45478;-71
2022/09/24 04:14:32;;;;;;;;;19.33;13.67;;;;;;;;5058981;27;46253;-70
2022/09/24 04:16:58;;;;;;;;;13.00;12.33;;;;;;;;5060353;27;46403;-71
2022/09/24 04:19:24;;;;;;;;;10.33;8.33;;;;;;;;5061304;27;45366;-72
2022/09/24 04:21:49;;;;;;;;;13.00;11.33;;;;;;;;5057109;27;45830;-71
2022/09/24 04:24:14;;;;;;;;;12.33;10.00;;;;;;;;5062618;27;45794;-72
2022/09/24 04:26:39;;;;;;;;;16.33;12.33;;;;;;;;5065512;27;45814;-74
2022/09/24 04:29:05;;;;;;;;;14.33;12.33;;;;;;;;5063543;27;45804;-75
2022/09/24 04:31:32;;;;;;;;;14.67;12.00;;;;;;;;5057660;27;45826;-74
2022/09/24 04:33:57;;;;;;;;;10.33;9.33;;;;;;;;5056751;27;45793;-72
2022/09/24 04:36:23;;;;;;;;;8.67;5.00;;;;;;;;5055633;27;45741;-70
2022/09/24 04:38:49;;;;;;;;;13.33;10.33;;;;;;;;5061669;27;45854;-72
2022/09/24 04:41:17;;;;;;;;;13.33;11.67;;;;;;;;5055018;27;45805;-74
2022/09/24 04:43:45;;;;;;;;;14.67;11.33;;;;;;;;5071599;27;45343;-73
2022/09/24 04:46:11;;;;;;;;;10.67;10.67;;;;;;;;5073212;27;45721;-74
2022/09/24 04:48:37;;;;;;;;;17.33;10.67;;;;;;;;5071269;27;45995;-74
2022/09/24 04:51:05;;;;;;;;;15.00;11.67;;;;;;;;5054316;27;45371;-71
2022/09/24 04:53:31;;;;;;;;;9.67;8.67;;;;;;;;5062353;27;45389;-70
2022/09/24 04:55:57;;;;;;;;;11.00;9.33;;;;;;;;5063521;27;45513;-71
2022/09/24 04:58:22;;;;;;;;;11.33;8.33;;;;;;;;5061144;27;46540;-71
2022/09/24 05:00:48;;;;;;;;;12.00;12.00;;;;;;;;5064554;27;45873;-72
2022/09/24 05:03:13;;;;;;;;;11.33;10.67;;;;;;;;5060496;27;45369;-71
2022/09/24 05:05:38;;;;;;;;;13.00;9.00;;;;;;;;5071719;27;45373;-71
2022/09/24 05:08:03;;;;;;;;;15.00;11.00;;;;;;;;5067184;27;46499;-72
2022/09/24 05:10:30;;;;;;;;;11.67;11.67;;;;;;;;5067581;27;45841;-71
2022/09/24 05:12:55;;;;;;;;;11.67;10.67;;;;;;;;5074878;27;45349;-71
2022/09/24 05:15:21;;;;;;;;;11.67;11.67;;;;;;;;5060570;27;45512;-71
2022/09/24 05:17:46;;;;;;;;;13.00;11.00;;;;;;;;5068993;27;45617;-71
2022/09/24 05:20:12;;;;;;;;;17.33;11.67;;;;;;;;5074740;27;45639;-71
2022/09/24 05:22:40;;;;;;;;;10.67;10.00;;;;;;;;5092634;27;45993;-72
2022/09/24 05:25:06;;;;;;;;;14.33;13.00;;;;;;;;5092607;27;45567;-72
2022/09/24 05:27:31;;;;;;;;;18.33;15.67;;;;;;;;5068247;27;46753;-72
2022/09/24 05:29:56;;;;;;;;;11.33;11.00;;;;;;;;5079226;27;45452;-71
2022/09/24 05:32:22;;;;;;;;;14.00;12.33;;;;;;;;5091870;27;45553;-72
2022/09/24 05:34:49;;;;;;;;;16.00;14.00;;;;;;;;5071131;27;45476;-72
2022/09/24 05:37:15;;;;;;;;;11.33;9.00;;;;;;;;5068140;27;47097;-75
2022/09/24 05:39:40;;;;;;;;;11.00;10.33;;;;;;;;5067751;27;45308;-71
2022/09/24 05:42:08;;;;;;;;;17.33;14.00;;;;;;;;5056876;27;45633;-72
2022/09/24 05:44:33;;;;;;;;;9.67;9.33;;;;;;;;5055474;27;45448;-72
2022/09/24 05:46:58;;;;;;;;;11.67;10.00;;;;;;;;5061804;27;45672;-73
2022/09/24 05:49:24;;;;;;;;;12.67;10.67;;;;;;;;5070279;27;45745;-72
2022/09/24 05:51:49;;;;;;;;;13.33;9.67;;;;;;;;5068160;27;45760;-71
2022/09/24 05:54:16;;;;;;;;;13.33;13.33;;;;;;;;5067409;27;46003;-72
2022/09/24 05:56:41;;;;;;;;;12.33;11.00;;;;;;;;5074856;27;46244;-72
2022/09/24 05:59:07;;;;;;;;;19.33;12.33;;;;;;;;5070223;27;45506;-72
2022/09/24 06:01:32;;;;;;;;;16.67;14.67;;;;;;;;5076391;27;46278;-72
2022/09/24 06:03:58;;;;;;;;;12.33;10.33;;;;;;;;5079281;27;45623;-72
2022/09/24 06:06:23;;;;;;;;;15.00;11.67;;;;;;;;5074368;27;46698;-71
2022/09/24 06:08:48;;;;;;;;;19.00;17.33;;;;;;;;5075288;27;45475;-72
2022/09/24 06:11:14;;;;;;;;;18.33;14.67;;;;;;;;5068648;27;45748;-72
2022/09/24 06:13:39;;;;;;;;;17.00;14.67;;;;;;;;5070211;27;45431;-71
2022/09/24 06:16:07;;;;;;;;;15.33;11.33;;;;;;;;5057057;27;46496;-72
2022/09/24 06:18:33;;;;;;;;;16.33;13.33;;;;;;;;5070375;27;45813;-71
2022/09/24 06:21:02;;;;;;;;;12.67;12.00;;;;;;;;5055077;27;45500;-73
2022/09/24 06:23:29;;;;;;;;;13.33;11.33;;;;;;;;5059822;27;45490;-68
2022/09/24 06:25:55;;;;;;;;;12.67;10.33;;;;;;;;5070956;27;47152;-70
2022/09/24 06:28:20;;;;;;;;;14.33;11.33;;;;;;;;5065702;27;45701;-71
2022/09/24 06:30:45;;;;;;;;;17.33;12.33;;;;;;;;5062945;27;45613;-71
2022/09/24 06:33:11;;;;;;;;;15.33;11.33;;;;;;;;5071608;27;45755;-72
2022/09/24 06:35:38;;;;;;;;;18.00;12.33;;;;;;;;5074801;27;46034;-71
2022/09/24 06:38:03;;;;;;;;;17.00;13.33;;;;;;;;5061144;27;45804;-72
2022/09/24 06:40:29;;;;;;;;;18.33;13.33;;;;;;;;5064532;27;46056;-71
2022/09/24 06:42:54;;;;;;;;;15.00;13.67;;;;;;;;5072323;27;45723;-70
2022/09/24 06:45:20;;;;;;;;;17.00;13.00;;;;;;;;5071592;27;45562;-71
2022/09/24 06:47:52;;;;;;;;;11.33;11.33;;;;;;;;5060037;27;45830;-73
2022/09/24 06:50:17;;;;;;;;;11.33;9.00;;;;;;;;5065012;27;45908;-71
2022/09/24 06:52:42;;;;;;;;;13.67;10.67;;;;;;;;5063014;27;45481;-72
2022/09/24 06:55:08;;;;;;;;;12.33;10.33;;;;;;;;5071266;27;47352;-69
2022/09/24 06:57:33;;;;;;;;;13.67;12.67;;;;;;;;5071628;27;45903;-70
2022/09/24 06:59:58;;;;;;;;;11.00;9.67;;;;;;;;5072128;27;45660;-70
2022/09/24 07:02:23;;;;;;;;;14.33;11.33;;;;;;;;5066388;27;45968;-70
2022/09/24 07:04:49;;;;;;;;;11.33;10.00;;;;;;;;5067914;27;46164;-70
2022/09/24 07:07:31;;;;;;;;;11.33;11.33;;;;;;;;5070438;27;45395;-72
2022/09/24 07:09:57;;;;;;;;;13.00;13.00;;;;;;;;5069678;27;45436;-72
2022/09/24 07:12:22;;;;;;;;;13.67;12.00;;;;;;;;5062797;27;45547;-71
2022/09/24 07:14:47;;;;;;;;;11.33;10.33;;;;;;;;5063487;27;46696;-71
2022/09/24 07:17:13;;;;;;;;;14.00;13.00;;;;;;;;5075697;27;45966;-69
2022/09/24 07:19:38;;;;;;;;;21.33;13.67;;;;;;;;5062665;27;45934;-70
2022/09/24 07:22:04;;;;;;;;;17.33;13.67;;;;;;;;5063873;27;45785;-70
2022/09/24 07:24:29;;;;;;;;;15.67;12.33;;;;;;;;5067999;27;47701;-70
2022/09/24 07:26:54;;;;;;;;;16.33;15.67;;;;;;;;5065426;27;45892;-68
2022/09/24 07:29:20;;;;;;;;;13.67;10.67;;;;;;;;5069075;27;46080;-67
2022/09/24 07:31:45;;;;;;;;;12.67;11.33;;;;;;;;5066449;27;45534;-71
2022/09/24 07:34:11;;;;;;;;;16.00;13.33;;;;;;;;5067480;27;45601;-69
2022/09/24 07:36:36;;;;;;;;;11.33;10.00;;;;;;;;5067648;27;45687;-68
2022/09/24 07:39:01;;;;;;;;;13.33;12.67;;;;;;;;5071690;27;45861;-69
2022/09/24 07:41:28;;;;;;;;;13.33;11.00;;;;;;;;5063629;27;45532;-67
2022/09/24 07:43:54;;;;;;;;;18.00;14.33;;;;;;;;5066624;27;45476;-69
2022/09/24 07:46:20;;;;;;;;;12.00;11.00;;;;;;;;5057636;27;45608;-69
2022/09/24 07:48:46;;;;;;;;;17.67;12.67;;;;;;;;5070201;27;45661;-70
2022/09/24 07:51:12;;;;;;;;;13.00;12.00;;;;;;;;5068344;27;45717;-69
2022/09/24 07:53:37;;;;;;;;;16.67;14.00;;;;;;;;5071336;27;46326;-71
2022/09/24 07:56:03;;;;;;;;;20.00;14.33;;;;;;;;5069217;27;45422;-68
2022/09/24 07:58:28;;;;;;;;;12.67;12.67;;;;;;;;5072654;27;46090;-67
2022/09/24 08:00:58;;;;;;;;;13.00;11.33;;;;;;;;5111143;22;45735;-86
2022/09/24 08:03:23;;;;;;;;;9.67;9.67;;;;;;;;5081608;27;45491;-82
2022/09/24 08:05:48;;;;;;;;;20.67;14.67;;;;;;;;5078815;27;45911;-81
2022/09/24 08:08:15;;;;;;;;;18.00;14.33;;;;;;;;5110430;27;45404;-84
2022/09/24 08:10:44;;;;;;;;;13.67;13.67;;;;;;;;5095592;27;45658;-84
2022/09/24 08:13:10;;;;;;;;;18.67;16.00;;;;;;;;5094418;27;45610;-83
2022/09/24 08:15:35;;;;;;;;;18.33;13.33;;;;;;;;5079757;27;45434;-83
2022/09/24 08:18:02;;;;;;;;;16.33;15.33;;;;;;;;5096218;27;45402;-83
2022/09/24 08:20:28;;;;;;;;;18.33;17.33;;;;;;;;5080140;27;45467;-88
2022/09/24 08:23:08;;;;;;;;;16.67;14.33;;;;;;;;5080851;27;45897;-86
2022/09/24 08:25:35;;;;;;;;;15.33;10.67;;;;;;;;5084827;27;45642;-85
2022/09/24 08:28:04;;;;;;;;;16.00;15.00;;;;;;;;5080425;27;45657;-86
2022/09/24 08:30:30;;;;;;;;;26.33;23.00;;;;;;;;5064056;27;46627;-85
2022/09/24 08:32:56;;;;;;;;;58.67;45.67;;;;;;;;5079473;27;46658;-85
2022/09/24 08:35:22;;;;;;;;;13.33;11.33;;;;;;;;5072185;27;45482;-84
2022/09/24 08:37:47;;;;;;;;;12.33;10.67;;;;;;;;5070166;27;45522;-84
2022/09/24 08:40:18;;;;;;;;;17.00;15.00;;;;;;;;5104788;27;46197;-83
2022/09/24 08:42:53;;;;;;;;;13.00;13.00;;;;;;;;5098692;27;45785;-87
2022/09/24 08:48:16;;;;;;;;;36.00;29.00;;;;;;;;5096497;27;45737;-82
2022/09/24 08:51:02;;;;;;;;;14.00;12.33;;;;;;;;5076619;27;46082;-83
2022/09/24 08:53:36;;;;;;;;;11.33;11.33;;;;;;;;5077854;27;45459;-82
2022/09/24 08:56:03;;;;;;;;;11.00;10.67;;;;;;;;5094104;27;45632;-82
2022/09/24 08:58:47;;;;;;;;;20.00;16.00;;;;;;;;5074387;27;45525;-83
2022/09/24 09:01:20;;;;;;;;;12.00;12.00;;;;;;;;5095723;27;45289;-83
2022/09/24 09:04:00;;;;;;;;;13.00;11.00;;;;;;;;5094923;27;45849;-86
2022/09/24 09:06:37;;;;;;;;;13.00;9.67;;;;;;;;5096839;27;45442;-83
2022/09/24 09:09:09;;;;;;;;;10.00;10.00;;;;;;;;5088964;27;45708;-84
2022/09/24 09:11:35;;;;;;;;;12.33;12.00;;;;;;;;5099899;27;45358;-84
2022/09/24 09:14:10;;;;;;;;;25.67;22.00;;;;;;;;5085382;27;46798;-83
2022/09/24 09:16:42;;;;;;;;;18.67;14.33;;;;;;;;5065762;27;45667;-85
2022/09/24 09:19:11;;;;;;;;;39.67;32.00;;;;;;;;5078378;27;45521;-81
2022/09/24 09:21:40;;;;;;;;;13.00;10.00;;;;;;;;5076582;27;45861;-81
2022/09/24 09:24:13;;;;;;;;;8.33;7.00;;;;;;;;5093216;27;45762;-82
2022/09/24 09:26:38;;;;;;;;;9.67;9.33;;;;;;;;5095004;27;45920;-83
2022/09/24 09:29:04;;;;;;;;;12.33;11.00;;;;;;;;5095108;27;45755;-82
2022/09/24 09:31:53;;;;;;;;;14.00;12.00;;;;;;;;5075464;27;46824;-86
2022/09/24 09:34:39;;;;;;;;;8.33;8.33;;;;;;;;5096825;27;46626;-90
2022/09/24 09:37:10;;;;;;;;;14.00;11.67;;;;;;;;5102541;27;45615;-88
2022/09/24 09:39:50;;;;;;;;;12.33;9.33;;;;;;;;5101514;27;45471;-89
2022/09/24 09:42:35;;;;;;;;;12.00;9.67;;;;;;;;5082695;27;46237;-83
2022/09/24 09:45:03;;;;;;;;;12.00;12.00;;;;;;;;5105921;27;47040;-86
2022/09/24 09:47:36;;;;;;;;;10.67;10.33;;;;;;;;5102199;27;45017;-87
2022/09/24 09:50:19;;;;;;;;;16.00;15.00;;;;;;;;5079039;27;45491;-82
2022/09/24 09:52:45;;;;;;;;;11.33;11.33;;;;;;;;5083541;27;45376;-88
2022/09/24 09:55:21;;;;;;;;;14.67;13.00;;;;;;;;5080620;28;48001;-87
2022/09/24 09:57:47;;;;;;;;;11.00;9.33;;;;;;;;5072065;27;45378;-88
2022/09/24 10:00:26;;;;;;;;;12.33;12.33;;;;;;;;5080156;27;45598;-88
2022/09/24 10:02:55;;;;;;;;;15.33;10.33;;;;;;;;5100005;27;45458;-88
2022/09/24 10:05:27;;;;;;;;;12.67;10.33;;;;;;;;5094157;27;45493;-85
2022/09/24 10:07:52;;;;;;;;;14.67;10.67;;;;;;;;5093602;27;46016;-84
2022/09/24 10:10:19;;;;;;;;;13.33;11.00;;;;;;;;5078606;27;45850;-84
2022/09/24 10:12:45;;;;;;;;;14.00;11.33;;;;;;;;5079040;27;47366;-85
2022/09/24 10:15:13;;;;;;;;;10.67;9.67;;;;;;;;5078895;27;46613;-84
2022/09/24 10:17:39;;;;;;;;;16.00;11.33;;;;;;;;5096930;27;45662;-84
2022/09/24 10:20:09;;;;;;;;;12.00;11.67;;;;;;;;5095255;27;45536;-82
2022/09/24 10:22:37;;;;;;;;;15.00;13.00;;;;;;;;5103098;27;45955;-86
2022/09/24 10:25:03;;;;;;;;;14.33;13.00;;;;;;;;5090975;27;45433;-89
2022/09/24 10:27:32;;;;;;;;;15.67;13.33;;;;;;;;5092484;27;45662;-91
2022/09/24 10:32:54;;;;;;;;;15.67;14.67;;;;;;;;5106258;27;45480;-87
2022/09/24 10:35:26;;;;;;;;;13.00;13.00;;;;;;;;5097895;27;45849;-86
2022/09/24 10:37:58;;;;;;;;;16.00;13.33;;;;;;;;5091055;27;45631;-84
2022/09/24 10:40:29;;;;;;;;;16.33;13.67;;;;;;;;5098699;27;45064;-85
2022/09/24 10:42:59;;;;;;;;;11.00;11.00;;;;;;;;5088172;27;45818;-85
2022/09/24 10:45:30;;;;;;;;;11.00;11.00;;;;;;;;5082570;27;45714;-85
2022/09/24 10:48:07;;;;;;;;;18.00;16.33;;;;;;;;5107294;27;44800;-85
2022/09/24 10:50:45;;;;;;;;;13.33;12.33;;;;;;;;5086750;27;45417;-86
2022/09/24 10:53:19;;;;;;;;;12.33;8.00;;;;;;;;5094834;27;45860;-85
2022/09/24 10:55:50;;;;;;;;;16.00;14.33;;;;;;;;5102057;27;45768;-86
2022/09/24 10:58:32;;;;;;;;;14.33;14.33;;;;;;;;5084986;27;46262;-87
2022/09/24 11:01:00;;;;;;;;;17.00;17.00;;;;;;;;5093454;27;45572;-84
2022/09/24 11:03:44;;;;;;;;;19.33;16.00;;;;;;;;5070555;27;46661;-84
2022/09/24 11:06:28;;;;;;;;;15.00;11.67;;;;;;;;5075812;27;46894;-82
2022/09/24 11:08:57;;;;;;;;;19.33;13.33;;;;;;;;5067905;27;45841;-84
2022/09/24 11:11:46;;;;;;;;;14.67;9.33;;;;;;;;5090171;27;44915;-83
2022/09/24 11:14:34;;;;;;;;;15.33;15.00;;;;;;;;5090318;27;45580;-83
2022/09/24 11:17:02;;;;;;;;;14.67;13.00;;;;;;;;5073313;27;47122;-86
2022/09/24 11:19:46;;;;;;;;;12.00;12.00;;;;;;;;5103207;27;45816;-77
2022/09/24 11:22:16;;;;;;;;;12.33;12.33;;;;;;;;5076960;27;45441;-80
2022/09/24 11:24:50;;;;;;;;;18.67;16.33;;;;;;;;5072668;27;46485;-80
2022/09/24 11:27:27;;;;;;;;;14.00;14.00;;;;;;;;5092887;27;46491;-80
2022/09/24 11:30:07;;;;;;;;;17.67;17.33;;;;;;;;5070248;27;45843;-81
2022/09/24 11:32:50;;;;;;;;;12.33;11.33;;;;;;;;5092179;27;45445;-82
2022/09/24 11:35:22;;;;;;;;;16.00;15.00;;;;;;;;5094977;27;45673;-81
2022/09/24 11:38:06;;;;;;;;;18.33;15.67;;;;;;;;5092957;27;45927;-82
2022/09/24 11:40:50;;;;;;;;;21.67;14.67;;;;;;;;5091927;27;45459;-83
2022/09/24 11:43:47;;;;;;;;;15.33;15.33;;;;;;;;5091718;27;45787;-81
2022/09/24 11:46:15;;;;;;;;;17.67;14.67;;;;;;;;5073367;27;45436;-81
2022/09/24 11:48:40;;;;;;;;;12.00;11.33;;;;;;;;5073562;27;47241;-81
2022/09/24 11:51:18;;;;;;;;;15.00;15.00;;;;;;;;5091806;27;45799;-81
2022/09/24 11:53:47;;;;;;;;;16.33;12.67;;;;;;;;5092987;27;45384;-80
2022/09/24 11:56:17;;;;;;;;;14.67;9.67;;;;;;;;5091659;27;45478;-80
2022/09/24 11:58:46;;;;;;;;;16.00;14.33;;;;;;;;5075472;27;47553;-85
2022/09/24 12:01:14;;;;;;;;;16.00;15.00;;;;;;;;5097784;27;46959;-82
2022/09/24 12:03:45;;;;;;;;;14.33;14.33;;;;;;;;5096517;27;45480;-83
2022/09/24 12:06:14;;;;;;;;;24.33;22.00;;;;;;;;5108734;27;45461;-85
2022/09/24 12:09:00;;;;;;;;;18.00;15.33;;;;;;;;5080964;27;48386;-81
2022/09/24 12:11:32;;;;;;;;;12.33;12.00;;;;;;;;5072441;27;45814;-81
2022/09/24 12:14:03;;;;;;;;;21.33;20.00;;;;;;;;5084585;27;45561;-80
2022/09/24 12:16:33;;;;;;;;;28.67;19.00;;;;;;;;5083364;27;46261;-81
2022/09/24 12:19:10;;;;;;;;;20.00;17.33;;;;;;;;5089375;27;45497;-81
2022/09/24 12:21:39;;;;;;;;;18.33;17.33;;;;;;;;5097893;27;45370;-80
2022/09/24 12:24:10;;;;;;;;;17.00;16.33;;;;;;;;5098355;27;45578;-81
2022/09/24 12:26:38;;;;;;;;;26.67;22.67;;;;;;;;5102654;27;45928;-79
2022/09/24 12:34:57;;;;;;;;;18.00;16.33;;;;;;;;5101751;27;45767;-87
2022/09/24 12:37:27;;;;;;;;;23.33;19.33;;;;;;;;5105158;27;45646;-87
2022/09/24 12:40:10;;;;;;;;;18.67;15.67;;;;;;;;5083216;27;45795;-86
2022/09/24 12:42:59;;;;;;;;;18.00;17.00;;;;;;;;5086165;27;45838;-80
2022/09/24 12:45:43;;;;;;;;;20.00;16.33;;;;;;;;5074564;27;45489;-85
2022/09/24 12:48:14;;;;;;;;;16.67;13.33;;;;;;;;5076201;27;46813;-86
2022/09/24 12:50:39;;;;;;;;;17.00;15.33;;;;;;;;5076296;27;47368;-81
2022/09/24 12:53:23;;;;;;;;;12.33;10.00;;;;;;;;5106233;27;45596;-86
2022/09/24 12:55:48;;;;;;;;;13.67;12.00;;;;;;;;5078151;27;45847;-85
2022/09/24 12:58:27;;;;;;;;;16.67;14.33;;;;;;;;5099398;27;45576;-85
2022/09/24 13:01:04;;;;;;;;;16.00;13.67;;;;;;;;5085115;27;46778;-84
2022/09/24 13:03:29;;;;;;;;;17.67;17.00;;;;;;;;5096487;27;45543;-85
2022/09/24 13:05:58;;;;;;;;;14.33;13.67;;;;;;;;5074809;27;46063;-85
2022/09/24 13:08:34;;;;;;;;;11.33;8.33;;;;;;;;5079001;27;46422;-86
2022/09/24 13:11:04;;;;;;;;;14.33;12.67;;;;;;;;5072720;27;45470;-84
2022/09/24 13:13:32;;;;;;;;;12.67;10.33;;;;;;;;5080255;27;45449;-83
2022/09/24 13:16:19;;;;;;;;;10.33;9.67;;;;;;;;5088207;27;45683;-85
2022/09/24 13:19:16;;;;;;;;;11.67;10.33;;;;;;;;5077440;27;45105;-84
2022/09/24 13:21:43;;;;;;;;;14.00;12.33;;;;;;;;5074529;27;47057;-85
2022/09/24 13:24:10;;;;;;;;;17.33;13.67;;;;;;;;5071502;27;45664;-84
2022/09/24 13:26:35;;;;;;;;;11.00;8.33;;;;;;;;5077379;27;45656;-84
2022/09/24 13:29:03;;;;;;;;;11.00;11.00;;;;;;;;5096835;27;45518;-84
2022/09/24 13:31:28;;;;;;;;;11.33;10.33;;;;;;;;5079908;27;47028;-86
2022/09/24 13:33:57;;;;;;;;;12.67;11.33;;;;;;;;5074223;27;45510;-82
2022/09/24 13:36:22;;;;;;;;;14.33;11.33;;;;;;;;5091983;27;46087;-80
2022/09/24 13:38:51;;;;;;;;;10.00;9.00;;;;;;;;5074269;27;46155;-80
2022/09/24 13:41:16;;;;;;;;;11.67;9.67;;;;;;;;5091107;27;46169;-80
2022/09/24 13:43:47;;;;;;;;;16.33;11.00;;;;;;;;5092508;27;45740;-80
2022/09/24 13:46:14;;;;;;;;;10.33;7.33;;;;;;;;5090006;27;45673;-80
2022/09/24 13:48:42;;;;;;;;;12.33;12.33;;;;;;;;5083680;27;46724;-85
2022/09/24 13:51:10;;;;;;;;;13.67;13.67;;;;;;;;5085356;27;48276;-80
2022/09/24 13:53:38;;;;;;;;;12.00;10.00;;;;;;;;5091572;27;45752;-77
2022/09/24 13:56:06;;;;;;;;;8.67;8.67;;;;;;;;5091814;27;45758;-80
2022/09/24 13:58:35;;;;;;;;;15.67;11.00;;;;;;;;5095419;27;45505;-81
2022/09/24 14:01:02;;;;;;;;;18.00;14.33;;;;;;;;5084190;27;47818;-81
2022/09/24 14:03:28;;;;;;;;;13.33;9.67;;;;;;;;5096559;27;45765;-81
2022/09/24 14:05:56;;;;;;;;;10.33;9.33;;;;;;;;5091277;27;45396;-77
2022/09/24 14:08:22;;;;;;;;;13.00;12.67;;;;;;;;5090637;27;45853;-79
2022/09/24 14:10:49;;;;;;;;;13.33;11.00;;;;;;;;5100046;27;46405;-81
2022/09/24 14:13:20;;;;;;;;;14.00;14.00;;;;;;;;5090123;27;45317;-81
2022/09/24 14:16:04;;;;;;;;;10.00;8.67;;;;;;;;5088941;27;45867;-83
2022/09/24 14:18:29;;;;;;;;;10.67;9.33;;;;;;;;5086404;27;45742;-81
2022/09/24 14:20:58;;;;;;;;;17.00;10.33;;;;;;;;5093975;27;46102;-79
2022/09/24 14:23:26;;;;;;;;;13.67;10.00;;;;;;;;5080607;27;45414;-82
2022/09/24 14:25:52;;;;;;;;;10.33;8.00;;;;;;;;5095057;27;45905;-79
2022/09/24 14:28:18;;;;;;;;;15.67;8.00;;;;;;;;5107231;27;46518;-79
2022/09/24 14:30:52;;;;;;;;;10.33;9.33;;;;;;;;5104487;27;46590;-78
2022/09/24 14:33:19;;;;;;;;;12.00;11.67;;;;;;;;5107483;27;45745;-81
2022/09/24 14:35:47;;;;;;;;;13.33;11.33;;;;;;;;5072751;27;46028;-79
2022/09/24 14:38:15;;;;;;;;;10.67;8.00;;;;;;;;5094500;27;45922;-82
2022/09/24 14:40:45;;;;;;;;;11.00;9.00;;;;;;;;5071841;27;48513;-83
2022/09/24 14:43:16;;;;;;;;;10.67;9.67;;;;;;;;5100022;27;45585;-83
2022/09/24 14:45:42;;;;;;;;;11.33;10.67;;;;;;;;5090708;27;45668;-82
2022/09/24 14:48:19;;;;;;;;;8.00;8.00;;;;;;;;5091922;27;45484;-84
2022/09/24 14:50:45;;;;;;;;;14.00;11.67;;;;;;;;5098135;27;46622;-83